Time;durP1;ratioP1;P1;durP2;ratioP2;P2;SDS_P1;SDS_P2;PMS_P1;PMS_P2;Temp;Humidity;BMP_temperature;BMP_pressure;BME280_temperature;BME280_humidity;BME280_pressure;Samples;Min_cycle;Max_cycle;Signal;HPM_P1;HPM_P2
2021/06/10 00:01:00;;;;;;;0.00;0.00;;;;;;;;;;5156477;27;20214;-70
2021/06/10 00:03:26;;;;;;;0.00;0.00;;;;;;;;;;5146941;27;20195;-70
2021/06/10 00:05:52;;;;;;;0.00;0.00;;;;;;;;;;5144783;27;20446;-70
2021/06/10 00:08:18;;;;;;;0.00;0.00;;;;;;;;;;5130400;28;20207;-69
2021/06/10 00:10:44;;;;;;;0.00;0.00;;;;;;;;;;5130143;27;20207;-70
2021/06/10 00:13:10;;;;;;;0.08;0.08;;;;;;;;;;5138885;28;20231;-70
2021/06/10 00:15:37;;;;;;;0.00;0.00;;;;;;;;;;5144672;28;20384;-70
2021/06/10 00:18:04;;;;;;;0.00;0.00;;;;;;;;;;5144656;28;20206;-70
2021/06/10 00:20:31;;;;;;;0.00;0.00;;;;;;;;;;5137485;28;20222;-70
2021/06/10 00:22:57;;;;;;;0.08;0.08;;;;;;;;;;5139024;28;20210;-69
2021/06/10 00:25:23;;;;;;;0.00;0.00;;;;;;;;;;5144346;28;20210;-70
2021/06/10 00:27:49;;;;;;;0.00;0.00;;;;;;;;;;5150272;27;20243;-69
2021/06/10 00:30:16;;;;;;;0.00;0.00;;;;;;;;;;5157794;27;20497;-69
2021/06/10 00:32:43;;;;;;;0.00;0.00;;;;;;;;;;5148149;27;20323;-69
2021/06/10 00:35:09;;;;;;;0.00;0.00;;;;;;;;;;5151599;27;20234;-69
2021/06/10 00:37:35;;;;;;;0.10;0.10;;;;;;;;;;5133217;28;20247;-69
2021/06/10 00:40:01;;;;;;;0.00;0.00;;;;;;;;;;5136892;28;20464;-69
2021/06/10 00:42:27;;;;;;;0.00;0.00;;;;;;;;;;5147076;27;20203;-69
2021/06/10 00:44:54;;;;;;;0.00;0.00;;;;;;;;;;5139544;27;20208;-69
2021/06/10 00:47:20;;;;;;;0.00;0.00;;;;;;;;;;5137504;28;20272;-70
2021/06/10 00:49:47;;;;;;;0.00;0.00;;;;;;;;;;5134991;28;20521;-70
2021/06/10 00:52:13;;;;;;;0.10;0.10;;;;;;;;;;5143166;28;20211;-69
2021/06/10 00:54:39;;;;;;;0.00;0.00;;;;;;;;;;5140632;28;20251;-71
2021/06/10 00:57:05;;;;;;;0.05;0.05;;;;;;;;;;5147225;27;20291;-69
2021/06/10 00:59:30;;;;;;;0.00;0.00;;;;;;;;;;5152911;27;20212;-69
2021/06/10 01:01:56;;;;;;;0.00;0.00;;;;;;;;;;5142643;28;20214;-69
2021/06/10 01:04:22;;;;;;;0.00;0.00;;;;;;;;;;5144571;27;20199;-69
2021/06/10 01:06:54;;;;;;;0.00;0.00;;;;;;;;;;5127318;27;20197;-69
2021/06/10 01:09:24;;;;;;;0.00;0.00;;;;;;;;;;5140195;27;20205;-69
2021/06/10 01:11:55;;;;;;;0.00;0.00;;;;;;;;;;5144573;27;20199;-69
2021/06/10 01:14:26;;;;;;;0.00;0.00;;;;;;;;;;5143189;27;20223;-70
2021/06/10 01:16:52;;;;;;;0.00;0.00;;;;;;;;;;5147921;27;20209;-70
2021/06/10 01:19:19;;;;;;;0.00;0.00;;;;;;;;;;5147474;27;20278;-70
2021/06/10 01:21:45;;;;;;;0.00;0.00;;;;;;;;;;5139990;27;20223;-69
2021/06/10 01:24:30;;;;;;;0.00;0.00;;;;;;;;;;5138067;27;20201;-69
2021/06/10 01:27:01;;;;;;;0.00;0.00;;;;;;;;;;5147561;27;20200;-69
2021/06/10 01:29:28;;;;;;;0.00;0.00;;;;;;;;;;5144727;27;20241;-69
2021/06/10 01:31:54;;;;;;;0.00;0.00;;;;;;;;;;5146959;27;20206;-69
2021/06/10 01:34:21;;;;;;;0.00;0.00;;;;;;;;;;5147043;27;20285;-69
2021/06/10 01:36:47;;;;;;;0.00;0.00;;;;;;;;;;5138573;27;20199;-69
2021/06/10 01:39:15;;;;;;;0.00;0.00;;;;;;;;;;5145946;27;20454;-69
2021/06/10 01:41:41;;;;;;;0.10;0.10;;;;;;;;;;5138910;27;20399;-69
2021/06/10 01:44:08;;;;;;;0.08;0.08;;;;;;;;;;5139589;27;20202;-69
2021/06/10 01:46:35;;;;;;;0.00;0.00;;;;;;;;;;5135645;27;20201;-69
2021/06/10 01:49:01;;;;;;;0.00;0.00;;;;;;;;;;5138396;27;20202;-69
2021/06/10 01:51:29;;;;;;;0.00;0.00;;;;;;;;;;5143025;27;20333;-69
2021/06/10 01:53:56;;;;;;;0.00;0.00;;;;;;;;;;5133578;27;20399;-69
2021/06/10 01:56:23;;;;;;;0.03;0.03;;;;;;;;;;5142454;27;20245;-69
2021/06/10 01:58:50;;;;;;;0.10;0.10;;;;;;;;;;5145242;27;20414;-69
2021/06/10 02:01:16;;;;;;;0.00;0.00;;;;;;;;;;5133429;27;20204;-69
2021/06/10 02:03:44;;;;;;;0.00;0.00;;;;;;;;;;5145614;27;20253;-69
2021/06/10 02:06:10;;;;;;;0.22;0.22;;;;;;;;;;5136876;27;20216;-69
2021/06/10 02:08:36;;;;;;;0.00;0.00;;;;;;;;;;5143088;27;20497;-69
2021/06/10 02:11:03;;;;;;;0.00;0.00;;;;;;;;;;5146855;27;20509;-69
2021/06/10 02:13:31;;;;;;;0.00;0.00;;;;;;;;;;5133796;27;20222;-69
2021/06/10 02:15:57;;;;;;;0.00;0.00;;;;;;;;;;5146851;27;20219;-69
2021/06/10 02:18:23;;;;;;;0.00;0.00;;;;;;;;;;5142395;27;20203;-69
2021/06/10 02:20:50;;;;;;;0.03;0.03;;;;;;;;;;5143228;27;20531;-69
2021/06/10 02:23:16;;;;;;;0.10;0.10;;;;;;;;;;5145472;27;20195;-69
2021/06/10 02:25:42;;;;;;;0.00;0.00;;;;;;;;;;5159154;27;20210;-69
2021/06/10 02:28:08;;;;;;;0.00;0.00;;;;;;;;;;5146456;27;20310;-69
2021/06/10 02:30:34;;;;;;;0.00;0.00;;;;;;;;;;5145831;27;20212;-69
2021/06/10 02:33:00;;;;;;;0.00;0.00;;;;;;;;;;5128092;27;20251;-69
2021/06/10 02:35:26;;;;;;;0.00;0.00;;;;;;;;;;5129894;27;20207;-69
2021/06/10 02:37:58;;;;;;;0.10;0.10;;;;;;;;;;5138234;27;20235;-69
2021/06/10 02:40:26;;;;;;;0.00;0.00;;;;;;;;;;5146186;27;20255;-69
2021/06/10 02:42:54;;;;;;;0.00;0.00;;;;;;;;;;5136075;27;20200;-69
2021/06/10 02:45:19;;;;;;;0.03;0.03;;;;;;;;;;5134657;27;20231;-70
2021/06/10 02:47:46;;;;;;;0.05;0.05;;;;;;;;;;5140175;27;20227;-70
2021/06/10 02:50:14;;;;;;;0.00;0.00;;;;;;;;;;5141572;27;20227;-70
2021/06/10 02:52:41;;;;;;;0.10;0.10;;;;;;;;;;5142412;27;20492;-69
2021/06/10 02:55:09;;;;;;;0.10;0.10;;;;;;;;;;5146069;27;20216;-69
2021/06/10 02:57:36;;;;;;;0.00;0.00;;;;;;;;;;5144054;27;20210;-69
2021/06/10 03:00:02;;;;;;;0.00;0.00;;;;;;;;;;5143366;27;20194;-69
2021/06/10 03:02:28;;;;;;;0.10;0.10;;;;;;;;;;5134477;27;20203;-70
2021/06/10 03:04:56;;;;;;;0.00;0.00;;;;;;;;;;5144261;27;20210;-69
2021/06/10 03:07:22;;;;;;;0.57;0.57;;;;;;;;;;5140095;27;20205;-69
2021/06/10 03:09:49;;;;;;;0.08;0.08;;;;;;;;;;5132036;27;20203;-69
2021/06/10 03:12:17;;;;;;;0.10;0.10;;;;;;;;;;5134757;27;20437;-69
2021/06/10 03:14:43;;;;;;;0.00;0.00;;;;;;;;;;5145521;27;20232;-70
2021/06/10 03:17:10;;;;;;;0.00;0.00;;;;;;;;;;5145424;27;20222;-69
2021/06/10 03:19:36;;;;;;;0.08;0.08;;;;;;;;;;5145356;27;20213;-69
2021/06/10 03:22:02;;;;;;;0.10;0.10;;;;;;;;;;5140700;27;20216;-69
2021/06/10 03:24:28;;;;;;;0.10;0.10;;;;;;;;;;5146996;27;20211;-70
2021/06/10 03:26:55;;;;;;;0.00;0.00;;;;;;;;;;5149361;27;20211;-70
2021/06/10 03:29:22;;;;;;;0.00;0.00;;;;;;;;;;5143578;27;20210;-69
2021/06/10 03:31:48;;;;;;;0.00;0.00;;;;;;;;;;5145114;27;20213;-69
2021/06/10 03:34:14;;;;;;;0.00;0.00;;;;;;;;;;5140732;27;20356;-70
2021/06/10 03:36:40;;;;;;;0.10;0.10;;;;;;;;;;5136201;27;20238;-69
2021/06/10 03:39:06;;;;;;;0.98;0.35;;;;;;;;;;5133627;27;20249;-69
2021/06/10 03:41:33;;;;;;;0.00;0.00;;;;;;;;;;5127725;28;20206;-70
2021/06/10 03:43:59;;;;;;;0.10;0.10;;;;;;;;;;5143261;27;20203;-70
2021/06/10 03:46:26;;;;;;;0.00;0.00;;;;;;;;;;5138713;27;20534;-70
2021/06/10 03:48:52;;;;;;;0.05;0.05;;;;;;;;;;5143160;27;20217;-69
2021/06/10 03:51:18;;;;;;;0.10;0.10;;;;;;;;;;5133013;27;20197;-69
2021/06/10 03:53:44;;;;;;;0.00;0.00;;;;;;;;;;5138093;27;20219;-69
2021/06/10 03:56:10;;;;;;;0.00;0.00;;;;;;;;;;5141188;27;20205;-69
2021/06/10 03:58:36;;;;;;;0.10;0.10;;;;;;;;;;5153521;27;20290;-70
2021/06/10 04:01:02;;;;;;;0.00;0.00;;;;;;;;;;5144567;27;20209;-69
2021/06/10 04:03:29;;;;;;;0.00;0.00;;;;;;;;;;5138313;27;20200;-70
2021/06/10 04:05:55;;;;;;;0.10;0.10;;;;;;;;;;5125694;27;20206;-69
2021/06/10 04:08:21;;;;;;;0.00;0.00;;;;;;;;;;5143587;28;20199;-69
2021/06/10 04:10:47;;;;;;;0.00;0.00;;;;;;;;;;5144754;28;20212;-69
2021/06/10 04:13:13;;;;;;;0.00;0.00;;;;;;;;;;5141916;28;20256;-70
2021/06/10 04:15:39;;;;;;;0.00;0.00;;;;;;;;;;5124778;28;20195;-69
2021/06/10 04:18:05;;;;;;;0.00;0.00;;;;;;;;;;5146432;27;20210;-70
2021/06/10 04:20:32;;;;;;;0.00;0.00;;;;;;;;;;5149409;27;20236;-69
2021/06/10 04:22:58;;;;;;;0.00;0.00;;;;;;;;;;5146134;27;20269;-69
2021/06/10 04:25:23;;;;;;;0.00;0.00;;;;;;;;;;5145957;27;20270;-71
2021/06/10 04:27:49;;;;;;;0.00;0.00;;;;;;;;;;5142464;28;20223;-69
2021/06/10 04:30:16;;;;;;;0.05;0.05;;;;;;;;;;5143443;28;20211;-69
2021/06/10 04:32:45;;;;;;;0.00;0.00;;;;;;;;;;5144230;27;20214;-69
2021/06/10 04:35:11;;;;;;;0.00;0.00;;;;;;;;;;5144466;28;20387;-69
2021/06/10 04:37:38;;;;;;;0.00;0.00;;;;;;;;;;5140379;28;20203;-69
2021/06/10 04:40:05;;;;;;;0.00;0.00;;;;;;;;;;5134756;28;20359;-69
2021/06/10 04:42:31;;;;;;;0.00;0.00;;;;;;;;;;5149101;27;20202;-69
2021/06/10 04:44:56;;;;;;;0.00;0.00;;;;;;;;;;5140029;27;20209;-70
2021/06/10 04:47:22;;;;;;;0.00;0.00;;;;;;;;;;5144829;27;20233;-69
2021/06/10 04:49:48;;;;;;;0.00;0.00;;;;;;;;;;5133812;27;20475;-70
2021/06/10 04:52:14;;;;;;;0.10;0.10;;;;;;;;;;5140128;27;20209;-70
2021/06/10 04:54:41;;;;;;;0.10;0.10;;;;;;;;;;5141915;27;20218;-69
2021/06/10 04:57:07;;;;;;;0.00;0.00;;;;;;;;;;5146301;27;20203;-70
2021/06/10 04:59:33;;;;;;;0.00;0.00;;;;;;;;;;5140435;27;20543;-70
2021/06/10 05:02:01;;;;;;;0.00;0.00;;;;;;;;;;5145015;27;20262;-70
2021/06/10 05:04:27;;;;;;;0.00;0.00;;;;;;;;;;5157059;27;20199;-69
2021/06/10 05:06:53;;;;;;;0.03;0.03;;;;;;;;;;5159580;27;20231;-71
2021/06/10 05:09:18;;;;;;;0.00;0.00;;;;;;;;;;5147393;27;20214;-69
2021/06/10 05:11:46;;;;;;;0.10;0.10;;;;;;;;;;5134465;27;20200;-70
2021/06/10 05:14:12;;;;;;;0.00;0.00;;;;;;;;;;5141314;27;20232;-70
2021/06/10 05:16:37;;;;;;;0.00;0.00;;;;;;;;;;5155303;27;20225;-70
2021/06/10 05:19:03;;;;;;;0.00;0.00;;;;;;;;;;5137145;27;20209;-70
2021/06/10 05:21:29;;;;;;;0.10;0.10;;;;;;;;;;5145683;27;20216;-70
2021/06/10 05:23:55;;;;;;;0.00;0.00;;;;;;;;;;5152403;27;20201;-70
2021/06/10 05:26:21;;;;;;;2.97;2.83;;;;;;;;;;5156919;27;20469;-70
2021/06/10 05:28:48;;;;;;;0.00;0.00;;;;;;;;;;5144610;27;20204;-70
2021/06/10 05:31:14;;;;;;;0.00;0.00;;;;;;;;;;5147417;27;20212;-70
2021/06/10 05:33:39;;;;;;;0.00;0.00;;;;;;;;;;5134425;27;20261;-69
2021/06/10 05:36:05;;;;;;;0.00;0.00;;;;;;;;;;5129642;27;20204;-70
2021/06/10 05:38:31;;;;;;;0.00;0.00;;;;;;;;;;5150144;27;20226;-70
2021/06/10 05:40:57;;;;;;;0.00;0.00;;;;;;;;;;5137060;27;20207;-70
2021/06/10 05:43:23;;;;;;;0.00;0.00;;;;;;;;;;5147271;27;20270;-70
2021/06/10 05:45:51;;;;;;;0.10;0.10;;;;;;;;;;5146234;27;20236;-70
2021/06/10 05:48:17;;;;;;;0.00;0.00;;;;;;;;;;5148189;27;20208;-69
2021/06/10 05:50:43;;;;;;;0.10;0.10;;;;;;;;;;5140852;27;20521;-70
2021/06/10 05:53:09;;;;;;;0.00;0.00;;;;;;;;;;5142087;27;20253;-71
2021/06/10 05:55:35;;;;;;;0.00;0.00;;;;;;;;;;5142682;27;20385;-70
2021/06/10 05:58:00;;;;;;;0.00;0.00;;;;;;;;;;5147312;27;20515;-70
2021/06/10 06:00:26;;;;;;;0.00;0.00;;;;;;;;;;5147140;27;20210;-70
2021/06/10 06:02:53;;;;;;;0.00;0.00;;;;;;;;;;5144771;27;20472;-70
2021/06/10 06:05:19;;;;;;;0.00;0.00;;;;;;;;;;5150244;27;20212;-70
2021/06/10 06:07:45;;;;;;;0.00;0.00;;;;;;;;;;5155380;27;20484;-70
2021/06/10 06:10:12;;;;;;;0.00;0.00;;;;;;;;;;5147902;27;20271;-70
2021/06/10 06:12:40;;;;;;;0.10;0.10;;;;;;;;;;5145519;27;20201;-67
2021/06/10 06:15:07;;;;;;;0.00;0.00;;;;;;;;;;5145329;27;20247;-67
2021/06/10 06:17:32;;;;;;;0.00;0.00;;;;;;;;;;5147406;27;20198;-69
2021/06/10 06:20:00;;;;;;;0.00;0.00;;;;;;;;;;5157913;27;20204;-68
2021/06/10 06:22:28;;;;;;;0.00;0.00;;;;;;;;;;5147127;27;20212;-68
2021/06/10 06:24:54;;;;;;;0.00;0.00;;;;;;;;;;5137814;27;20221;-71
2021/06/10 06:27:20;;;;;;;0.00;0.00;;;;;;;;;;5134125;27;20200;-70
2021/06/10 06:29:46;;;;;;;0.00;0.00;;;;;;;;;;5128005;27;20204;-69
2021/06/10 06:32:12;;;;;;;0.00;0.00;;;;;;;;;;5141135;27;20269;-70
2021/06/10 06:34:37;;;;;;;0.10;0.10;;;;;;;;;;5144387;27;20236;-68
2021/06/10 06:37:05;;;;;;;0.00;0.00;;;;;;;;;;5151261;27;20266;-69
2021/06/10 06:39:31;;;;;;;0.00;0.00;;;;;;;;;;5140611;27;20545;-71
2021/06/10 06:41:57;;;;;;;0.00;0.00;;;;;;;;;;5134938;27;20208;-71
2021/06/10 06:44:23;;;;;;;0.00;0.00;;;;;;;;;;5139730;27;20195;-71
2021/06/10 06:46:49;;;;;;;0.00;0.00;;;;;;;;;;5144454;27;20224;-70
2021/06/10 06:49:14;;;;;;;0.00;0.00;;;;;;;;;;5150843;27;20206;-70
2021/06/10 06:51:40;;;;;;;0.00;0.00;;;;;;;;;;5138347;27;20200;-71
2021/06/10 06:54:07;;;;;;;0.00;0.00;;;;;;;;;;5133405;27;20224;-70
2021/06/10 06:56:33;;;;;;;0.00;0.00;;;;;;;;;;5140910;27;20204;-70
2021/06/10 06:58:59;;;;;;;0.10;0.10;;;;;;;;;;5134037;27;20210;-70
2021/06/10 07:01:25;;;;;;;0.00;0.00;;;;;;;;;;5145681;27;20222;-68
2021/06/10 07:03:51;;;;;;;0.08;0.08;;;;;;;;;;5128625;27;20262;-71
2021/06/10 07:06:17;;;;;;;0.00;0.00;;;;;;;;;;5147958;27;20203;-79
2021/06/10 07:08:43;;;;;;;0.00;0.00;;;;;;;;;;5144964;27;20227;-78
2021/06/10 07:11:12;;;;;;;0.00;0.00;;;;;;;;;;5143327;27;20204;-79
2021/06/10 07:13:38;;;;;;;0.00;0.00;;;;;;;;;;5134432;27;20293;-79
2021/06/10 07:16:04;;;;;;;0.00;0.00;;;;;;;;;;5148025;27;20204;-77
2021/06/10 07:18:30;;;;;;;0.00;0.00;;;;;;;;;;5146947;27;20267;-78
2021/06/10 07:20:56;;;;;;;0.00;0.00;;;;;;;;;;5145666;27;20208;-78
2021/06/10 07:23:22;;;;;;;0.00;0.00;;;;;;;;;;5150033;27;20217;-78
2021/06/10 07:25:49;;;;;;;0.00;0.00;;;;;;;;;;5141748;27;20206;-78
2021/06/10 07:28:16;;;;;;;0.00;0.00;;;;;;;;;;5147401;27;20261;-77
2021/06/10 07:30:42;;;;;;;0.00;0.00;;;;;;;;;;5146920;27;20397;-77
2021/06/10 07:33:09;;;;;;;0.00;0.00;;;;;;;;;;5144130;27;20496;-78
2021/06/10 07:35:35;;;;;;;0.00;0.00;;;;;;;;;;5141384;27;20200;-77
2021/06/10 07:38:03;;;;;;;0.00;0.00;;;;;;;;;;5147618;27;20277;-78
2021/06/10 07:40:29;;;;;;;0.30;0.30;;;;;;;;;;5148364;27;21125;-78
2021/06/10 07:42:55;;;;;;;0.00;0.00;;;;;;;;;;5146215;27;20225;-78
2021/06/10 07:45:23;;;;;;;0.00;0.00;;;;;;;;;;5144260;27;20258;-75
2021/06/10 07:47:49;;;;;;;0.00;0.00;;;;;;;;;;5144533;27;20268;-77
2021/06/10 07:50:15;;;;;;;0.00;0.00;;;;;;;;;;5139188;27;20509;-77
2021/06/10 07:52:40;;;;;;;0.00;0.00;;;;;;;;;;5137480;27;20197;-76
2021/06/10 07:55:07;;;;;;;0.00;0.00;;;;;;;;;;5141569;27;20225;-78
2021/06/10 07:57:33;;;;;;;0.00;0.00;;;;;;;;;;5144758;27;20301;-79
2021/06/10 07:59:59;;;;;;;0.00;0.00;;;;;;;;;;5135923;27;20216;-77
2021/06/10 08:02:28;;;;;;;0.00;0.00;;;;;;;;;;5141034;27;20197;-77
2021/06/10 08:04:54;;;;;;;0.08;0.08;;;;;;;;;;5147223;27;20538;-76
2021/06/10 08:07:20;;;;;;;0.00;0.00;;;;;;;;;;5149206;27;20205;-74
2021/06/10 08:09:46;;;;;;;0.00;0.00;;;;;;;;;;5147819;27;20200;-77
2021/06/10 08:12:13;;;;;;;0.00;0.00;;;;;;;;;;5143931;28;20197;-78
2021/06/10 08:14:39;;;;;;;0.00;0.00;;;;;;;;;;5152784;27;20281;-75
2021/06/10 08:17:08;;;;;;;0.00;0.00;;;;;;;;;;5141000;27;20247;-75
2021/06/10 08:19:35;;;;;;;0.00;0.00;;;;;;;;;;5152400;27;20201;-72
2021/06/10 08:22:02;;;;;;;0.00;0.00;;;;;;;;;;5158519;27;20359;-70
2021/06/10 08:24:28;;;;;;;0.00;0.00;;;;;;;;;;5152204;27;20193;-69
2021/06/10 08:26:54;;;;;;;0.00;0.00;;;;;;;;;;5152326;27;20201;-70
2021/06/10 08:29:20;;;;;;;0.00;0.00;;;;;;;;;;5150361;27;20212;-70
2021/06/10 08:31:47;;;;;;;0.00;0.00;;;;;;;;;;5160134;27;20201;-71
2021/06/10 08:34:13;;;;;;;0.05;0.05;;;;;;;;;;5161520;27;20227;-71
2021/06/10 08:36:40;;;;;;;0.00;0.00;;;;;;;;;;5152287;27;20268;-70
2021/06/10 08:39:07;;;;;;;0.00;0.00;;;;;;;;;;5146346;27;20236;-70
2021/06/10 08:41:34;;;;;;;0.08;0.08;;;;;;;;;;5148212;27;20201;-70
2021/06/10 08:44:00;;;;;;;0.00;0.00;;;;;;;;;;5151888;27;20195;-70
2021/06/10 08:46:26;;;;;;;0.00;0.00;;;;;;;;;;5134667;27;20233;-71
2021/06/10 08:48:53;;;;;;;0.00;0.00;;;;;;;;;;5142018;27;20300;-70
2021/06/10 08:51:20;;;;;;;0.00;0.00;;;;;;;;;;5147847;27;20269;-70
2021/06/10 08:53:50;;;;;;;0.00;0.00;;;;;;;;;;5145965;27;20225;-69
2021/06/10 08:56:17;;;;;;;0.00;0.00;;;;;;;;;;5146039;27;20224;-70
2021/06/10 08:58:43;;;;;;;0.00;0.00;;;;;;;;;;5144584;27;20456;-70
2021/06/10 09:01:12;;;;;;;0.00;0.00;;;;;;;;;;5147285;27;20360;-70
2021/06/10 09:03:39;;;;;;;0.00;0.00;;;;;;;;;;5146235;27;20197;-70
2021/06/10 09:06:06;;;;;;;0.00;0.00;;;;;;;;;;5153695;27;20201;-69
2021/06/10 09:08:33;;;;;;;0.00;0.00;;;;;;;;;;5153735;27;20211;-70
2021/06/10 09:11:06;;;;;;;0.00;0.00;;;;;;;;;;5156533;27;20479;-71
2021/06/10 09:13:40;;;;;;;0.00;0.00;;;;;;;;;;5146417;27;20229;-70
2021/06/10 09:16:33;;;;;;;0.00;0.00;;;;;;;;;;5145915;27;20208;-70
2021/06/10 09:19:02;;;;;;;0.00;0.00;;;;;;;;;;5095831;27;20242;-69
2021/06/10 09:21:33;;;;;;;0.00;0.00;;;;;;;;;;5143010;27;20419;-67
2021/06/10 09:24:29;;;;;;;0.00;0.00;;;;;;;;;;5147645;27;20240;-70
2021/06/10 09:27:02;;;;;;;0.00;0.00;;;;;;;;;;5071061;28;20204;-69
2021/06/10 09:29:39;;;;;;;0.08;0.08;;;;;;;;;;5134053;27;20202;-69
2021/06/10 09:32:06;;;;;;;0.00;0.00;;;;;;;;;;5140780;27;20193;-69
2021/06/10 09:34:46;;;;;;;0.00;0.00;;;;;;;;;;5138490;27;20221;-65
2021/06/10 09:37:13;;;;;;;0.10;0.10;;;;;;;;;;5145678;27;20481;-70
2021/06/10 09:39:52;;;;;;;0.00;0.00;;;;;;;;;;5148408;27;20221;-69
2021/06/10 09:42:25;;;;;;;0.28;0.28;;;;;;;;;;5147616;27;20472;-70
2021/06/10 09:44:54;;;;;;;0.00;0.00;;;;;;;;;;5152480;27;20189;-70
2021/06/10 09:47:27;;;;;;;0.00;0.00;;;;;;;;;;5156921;27;20530;-69
2021/06/10 09:49:54;;;;;;;0.22;0.22;;;;;;;;;;5160494;27;20201;-70
2021/06/10 09:52:21;;;;;;;0.00;0.00;;;;;;;;;;5155847;27;20278;-69
2021/06/10 09:54:50;;;;;;;0.00;0.00;;;;;;;;;;5146717;27;20527;-70
2021/06/10 09:57:16;;;;;;;0.00;0.00;;;;;;;;;;5161366;27;20197;-69
2021/06/10 09:59:45;;;;;;;0.00;0.00;;;;;;;;;;5158209;27;20473;-70
2021/06/10 10:02:24;;;;;;;0.10;0.10;;;;;;;;;;5157967;27;20229;-70
2021/06/10 10:05:04;;;;;;;0.00;0.00;;;;;;;;;;5151213;27;20201;-69
2021/06/10 10:07:31;;;;;;;0.00;0.00;;;;;;;;;;5151578;27;20264;-69
2021/06/10 10:09:58;;;;;;;0.00;0.00;;;;;;;;;;5146495;27;20201;-69
2021/06/10 10:12:31;;;;;;;0.00;0.00;;;;;;;;;;5149332;27;20202;-69
2021/06/10 10:14:59;;;;;;;0.00;0.00;;;;;;;;;;5136161;27;20438;-69
2021/06/10 10:17:26;;;;;;;0.00;0.00;;;;;;;;;;5150619;27;20488;-69
2021/06/10 10:19:52;;;;;;;0.00;0.00;;;;;;;;;;5160460;27;20488;-69
2021/06/10 10:22:19;;;;;;;0.00;0.00;;;;;;;;;;5152095;27;20489;-69
2021/06/10 10:24:45;;;;;;;0.00;0.00;;;;;;;;;;5136200;27;20209;-69
2021/06/10 10:27:13;;;;;;;0.00;0.00;;;;;;;;;;5147416;27;20209;-69
2021/06/10 10:29:39;;;;;;;0.00;0.00;;;;;;;;;;5150700;27;20202;-69
2021/06/10 10:32:09;;;;;;;0.00;0.00;;;;;;;;;;5146489;27;20209;-69
2021/06/10 10:34:38;;;;;;;0.00;0.00;;;;;;;;;;5145838;27;20233;-70
2021/06/10 10:37:17;;;;;;;0.00;0.00;;;;;;;;;;5145619;27;20383;-69
2021/06/10 10:39:43;;;;;;;0.00;0.00;;;;;;;;;;5143874;27;20224;-69
2021/06/10 10:42:10;;;;;;;0.00;0.00;;;;;;;;;;5149743;27;20232;-69
2021/06/10 10:44:36;;;;;;;0.00;0.00;;;;;;;;;;5145143;27;20213;-66
2021/06/10 10:47:03;;;;;;;0.00;0.00;;;;;;;;;;5151186;27;20198;-65
2021/06/10 10:49:31;;;;;;;0.00;0.00;;;;;;;;;;5144483;27;20301;-66
2021/06/10 10:52:12;;;;;;;0.00;0.00;;;;;;;;;;5145102;27;20509;-66
2021/06/10 10:54:39;;;;;;;0.10;0.10;;;;;;;;;;5138096;27;20217;-65
2021/06/10 10:57:05;;;;;;;0.00;0.00;;;;;;;;;;5142418;27;20201;-65
2021/06/10 10:59:39;;;;;;;0.00;0.00;;;;;;;;;;5139867;27;20202;-66
2021/06/10 11:02:06;;;;;;;0.00;0.00;;;;;;;;;;5141892;27;20412;-67
2021/06/10 11:04:50;;;;;;;0.00;0.00;;;;;;;;;;5129544;27;20265;-67
2021/06/10 11:07:34;;;;;;;0.00;0.00;;;;;;;;;;5142321;27;20403;-64
2021/06/10 11:10:00;;;;;;;0.05;0.05;;;;;;;;;;5141994;27;20264;-66
2021/06/10 11:12:41;;;;;;;0.00;0.00;;;;;;;;;;5146348;27;20269;-68
2021/06/10 11:15:09;;;;;;;0.00;0.00;;;;;;;;;;5143084;27;20221;-66
2021/06/10 11:17:43;;;;;;;0.00;0.00;;;;;;;;;;5142185;27;20198;-67
2021/06/10 11:20:13;;;;;;;0.00;0.00;;;;;;;;;;5142444;27;20209;-66
2021/06/10 11:22:40;;;;;;;0.00;0.00;;;;;;;;;;5138771;27;20213;-66
2021/06/10 11:25:08;;;;;;;0.00;0.00;;;;;;;;;;5135431;27;20200;-68
2021/06/10 11:27:44;;;;;;;0.00;0.00;;;;;;;;;;5141087;27;20209;-66
2021/06/10 11:30:11;;;;;;;0.00;0.00;;;;;;;;;;5129880;27;20276;-67
2021/06/10 11:32:52;;;;;;;0.00;0.00;;;;;;;;;;5136972;27;20209;-67
2021/06/10 11:35:27;;;;;;;0.00;0.00;;;;;;;;;;5146033;27;20228;-66
2021/06/10 11:37:54;;;;;;;0.00;0.00;;;;;;;;;;5145266;27;20287;-67
2021/06/10 11:40:20;;;;;;;0.00;0.00;;;;;;;;;;5143157;27;20208;-66
2021/06/10 11:42:46;;;;;;;0.00;0.00;;;;;;;;;;5144676;27;20217;-66
2021/06/10 11:45:13;;;;;;;0.00;0.00;;;;;;;;;;5145460;27;20203;-68
2021/06/10 11:47:42;;;;;;;0.00;0.00;;;;;;;;;;5156894;27;20271;-67
2021/06/10 11:50:22;;;;;;;0.00;0.00;;;;;;;;;;5154783;27;20535;-69
2021/06/10 11:52:53;;;;;;;0.00;0.00;;;;;;;;;;5153211;27;20389;-67
2021/06/10 11:55:21;;;;;;;0.00;0.00;;;;;;;;;;5144062;27;20350;-67
2021/06/10 11:57:57;;;;;;;0.00;0.00;;;;;;;;;;5142809;27;20204;-67
2021/06/10 12:00:27;;;;;;;0.00;0.00;;;;;;;;;;5144093;27;20269;-67
2021/06/10 12:02:55;;;;;;;0.00;0.00;;;;;;;;;;5142948;27;20387;-67
2021/06/10 12:05:21;;;;;;;0.03;0.03;;;;;;;;;;5143701;27;20197;-67
2021/06/10 12:07:48;;;;;;;0.00;0.00;;;;;;;;;;5143676;27;20201;-67
2021/06/10 12:10:17;;;;;;;0.00;0.00;;;;;;;;;;5143480;27;20201;-68
2021/06/10 12:12:45;;;;;;;0.00;0.00;;;;;;;;;;5141102;27;20231;-68
2021/06/10 12:15:28;;;;;;;0.00;0.00;;;;;;;;;;5139288;27;20229;-68
2021/06/10 12:17:55;;;;;;;0.00;0.00;;;;;;;;;;5140045;28;20264;-67
2021/06/10 12:20:22;;;;;;;0.00;0.00;;;;;;;;;;5142140;27;20205;-67
2021/06/10 12:22:49;;;;;;;0.10;0.10;;;;;;;;;;5138461;27;20205;-65
2021/06/10 12:25:18;;;;;;;0.00;0.00;;;;;;;;;;5135708;28;20197;-66
2021/06/10 12:27:45;;;;;;;0.00;0.00;;;;;;;;;;5136094;28;20202;-65
2021/06/10 12:30:25;;;;;;;0.00;0.00;;;;;;;;;;5135621;28;20531;-66
2021/06/10 12:32:52;;;;;;;0.00;0.00;;;;;;;;;;5141658;27;20209;-66
2021/06/10 12:35:20;;;;;;;0.00;0.00;;;;;;;;;;5133958;28;20284;-66
2021/06/10 12:37:50;;;;;;;0.00;0.00;;;;;;;;;;5135820;28;20288;-67
2021/06/10 12:40:18;;;;;;;0.00;0.00;;;;;;;;;;5132560;28;20202;-66
2021/06/10 12:43:03;;;;;;;0.00;0.00;;;;;;;;;;5135468;27;20227;-65
2021/06/10 12:45:29;;;;;;;0.00;0.00;;;;;;;;;;5134195;28;20213;-66
2021/06/10 12:47:56;;;;;;;0.00;0.00;;;;;;;;;;5132991;28;20206;-68
2021/06/10 12:50:22;;;;;;;0.00;0.00;;;;;;;;;;5137590;27;20204;-67
2021/06/10 12:52:48;;;;;;;0.03;0.03;;;;;;;;;;5135681;28;20233;-67
2021/06/10 12:55:16;;;;;;;0.00;0.00;;;;;;;;;;5128489;27;20233;-67
2021/06/10 12:57:43;;;;;;;0.00;0.00;;;;;;;;;;5138870;28;20435;-66
2021/06/10 13:00:11;;;;;;;0.00;0.00;;;;;;;;;;5127756;28;20206;-69
2021/06/10 13:02:37;;;;;;;0.00;0.00;;;;;;;;;;5142442;27;20235;-68
2021/06/10 13:05:12;;;;;;;0.00;0.00;;;;;;;;;;5140733;27;20408;-67
2021/06/10 13:07:39;;;;;;;0.08;0.08;;;;;;;;;;5142766;27;20219;-68
2021/06/10 13:10:07;;;;;;;0.10;0.10;;;;;;;;;;5145739;27;20208;-69
2021/06/10 13:12:34;;;;;;;0.00;0.00;;;;;;;;;;5144250;27;20198;-68
2021/06/10 13:15:10;;;;;;;0.00;0.00;;;;;;;;;;5145627;27;20297;-67
2021/06/10 13:17:46;;;;;;;0.00;0.00;;;;;;;;;;5139824;27;20225;-68
2021/06/10 13:20:12;;;;;;;0.00;0.00;;;;;;;;;;5139751;27;20205;-68
2021/06/10 13:22:38;;;;;;;0.00;0.00;;;;;;;;;;5144476;27;20241;-67
2021/06/10 13:25:06;;;;;;;0.00;0.00;;;;;;;;;;5140727;27;20280;-67
2021/06/10 13:27:32;;;;;;;0.00;0.00;;;;;;;;;;5138289;27;20202;-66
2021/06/10 13:29:58;;;;;;;0.00;0.00;;;;;;;;;;5137480;27;20205;-65
2021/06/10 13:32:27;;;;;;;0.00;0.00;;;;;;;;;;5146781;27;20208;-66
2021/06/10 13:35:07;;;;;;;0.00;0.00;;;;;;;;;;5143728;27;20232;-67
2021/06/10 13:37:33;;;;;;;0.00;0.00;;;;;;;;;;5140186;27;20197;-66
2021/06/10 13:40:00;;;;;;;3.40;0.70;;;;;;;;;;5142237;27;20272;-67
2021/06/10 13:42:27;;;;;;;0.00;0.00;;;;;;;;;;5144394;27;20206;-67
2021/06/10 13:44:54;;;;;;;0.00;0.00;;;;;;;;;;5139598;27;20251;-66
2021/06/10 13:47:20;;;;;;;0.00;0.00;;;;;;;;;;5148768;27;20202;-67
2021/06/10 13:49:48;;;;;;;0.00;0.00;;;;;;;;;;5138755;27;20226;-66
2021/06/10 13:52:15;;;;;;;0.00;0.00;;;;;;;;;;5138275;27;20212;-66
2021/06/10 13:54:41;;;;;;;0.00;0.00;;;;;;;;;;5134937;27;20466;-66
2021/06/10 13:57:07;;;;;;;0.00;0.00;;;;;;;;;;5142911;27;20200;-66
2021/06/10 13:59:35;;;;;;;0.00;0.00;;;;;;;;;;5129636;27;20198;-68
2021/06/10 14:02:01;;;;;;;0.00;0.00;;;;;;;;;;5130171;27;20202;-68
2021/06/10 14:04:27;;;;;;;0.00;0.00;;;;;;;;;;5138924;27;20216;-68
2021/06/10 14:06:55;;;;;;;0.00;0.00;;;;;;;;;;5136115;27;20197;-67
2021/06/10 14:09:21;;;;;;;0.00;0.00;;;;;;;;;;5132778;27;20212;-67
2021/06/10 14:11:47;;;;;;;0.00;0.00;;;;;;;;;;5129434;27;20203;-67
2021/06/10 14:14:13;;;;;;;0.00;0.00;;;;;;;;;;5135299;27;20217;-67
2021/06/10 14:16:39;;;;;;;0.00;0.00;;;;;;;;;;5133167;27;20206;-67
2021/06/10 14:19:08;;;;;;;0.00;0.00;;;;;;;;;;5134582;27;20344;-68
2021/06/10 14:21:34;;;;;;;0.00;0.00;;;;;;;;;;5141064;27;20303;-68
2021/06/10 14:24:02;;;;;;;0.00;0.00;;;;;;;;;;5138672;27;20202;-68
2021/06/10 14:26:30;;;;;;;0.00;0.00;;;;;;;;;;5140308;27;20488;-68
2021/06/10 14:29:04;;;;;;;0.00;0.00;;;;;;;;;;5132235;27;20206;-67
2021/06/10 14:34:15;;;;;;;0.00;0.00;;;;;;;;;;5140299;27;20233;-68
2021/06/10 14:36:41;;;;;;;0.00;0.00;;;;;;;;;;5138487;27;20235;-70
2021/06/10 14:39:09;;;;;;;0.00;0.00;;;;;;;;;;5136055;27;20226;-67
2021/06/10 14:41:36;;;;;;;0.00;0.00;;;;;;;;;;5135994;27;22824;-67
2021/06/10 14:44:03;;;;;;;0.00;0.00;;;;;;;;;;5133100;27;20316;-67
2021/06/10 14:46:29;;;;;;;0.00;0.00;;;;;;;;;;5127325;27;20229;-66
2021/06/10 14:48:55;;;;;;;0.00;0.00;;;;;;;;;;5140147;27;20286;-68